Time;durP1;ratioP1;P1;durP2;ratioP2;P2;SDS_P1;SDS_P2;PMS_P1;PMS_P2;Temp;Humidity;BMP_temperature;BMP_pressure;BME280_temperature;BME280_humidity;BME280_pressure;Samples;Min_cycle;Max_cycle;Signal;HPM_P1;HPM_P2
2021/03/27 00:01:42;;;;;;;6.82;3.45;;;;;;;;;;4875185;29;20060;-88
2021/03/27 00:04:27;;;;;;;11.15;2.90;;;;;;;;;;4886656;29;20061;-87
2021/03/27 00:08:07;;;;;;;9.50;4.05;;;5.80;99.90;;;;;;4909222;29;20056;-86
2021/03/27 00:11:06;;;;;;;7.10;2.42;;;5.90;99.90;;;;;;4892909;29;20033;-87
2021/03/27 00:13:41;;;;;;;15.30;3.00;;;5.90;99.90;;;;;;4864980;29;20052;-88
2021/03/27 00:16:31;;;;;;;5.53;2.10;;;5.90;99.90;;;;;;4878486;29;20075;-87
2021/03/27 00:18:59;;;;;;;11.50;3.13;;;;;;;;;;4876591;29;20071;-87
2021/03/27 00:21:53;;;;;;;4.10;2.03;;;5.50;99.90;;;;;;4879235;29;20436;-88
2021/03/27 00:24:30;;;;;;;3.90;1.60;;;;;;;;;;4874515;29;20045;-87
2021/03/27 00:27:05;;;;;;;6.47;2.28;;;5.40;99.90;;;;;;4892842;29;20095;-87
2021/03/27 00:29:46;;;;;;;13.38;3.72;;;5.30;99.90;;;;;;4889206;29;20431;-85
2021/03/27 00:32:16;;;;;;;13.30;3.35;;;;;;;;;;4861583;29;20041;-86
2021/03/27 00:34:47;;;;;;;3.80;1.67;;;;;;;;;;4880911;29;20068;-86
2021/03/27 00:37:16;;;;;;;6.85;2.15;;;;;;;;;;4862087;29;20069;-87
2021/03/27 00:39:49;;;;;;;3.83;3.13;;;5.10;99.90;;;;;;4886478;29;20469;-85
2021/03/27 00:42:35;;;;;;;9.98;2.70;;;5.00;99.90;;;;;;4841944;29;20060;-85
2021/03/27 00:45:24;;;;;;;3.17;1.65;;;5.40;99.90;;;;;;4882918;29;20052;-86
2021/03/27 00:48:03;;;;;;;9.02;2.88;;;5.30;99.90;;;;;;4868911;29;20072;-85
2021/03/27 00:50:52;;;;;;;5.00;2.40;;;4.90;99.90;;;;;;4877846;29;20502;-86
2021/03/27 00:53:33;;;;;;;3.97;1.67;;;5.90;99.90;;;;;;4864451;29;20051;-85
2021/03/27 00:56:10;;;;;;;10.43;2.33;;;4.90;99.90;;;;;;4862742;29;20863;-85
2021/03/27 00:58:45;;;;;;;3.00;1.98;;;4.80;99.90;;;;;;4865644;29;20052;-86
2021/03/27 01:01:17;;;;;;;6.63;2.88;;;4.80;99.90;;;;;;4851153;29;20053;-85
2021/03/27 01:04:12;;;;;;;6.28;2.35;;;4.80;99.90;;;;;;4874959;29;20052;-86
2021/03/27 01:07:21;;;;;;;3.97;1.83;;;5.10;99.90;;;;;;4877680;29;20044;-87
2021/03/27 01:10:09;;;;;;;6.80;2.75;;;4.80;99.90;;;;;;4888874;29;20497;-86
2021/03/27 01:13:13;;;;;;;1.55;1.50;;;4.90;99.90;;;;;;4872400;29;20280;-85
2021/03/27 01:15:49;;;;;;;4.70;2.28;;;4.90;99.90;;;;;;4862699;29;20049;-85
2021/03/27 01:18:24;;;;;;;5.95;1.88;;;4.90;99.90;;;;;;4874140;29;20082;-86
2021/03/27 01:20:56;;;;;;;4.00;2.10;;;4.80;99.90;;;;;;4868021;29;20060;-86
2021/03/27 01:23:25;;;;;;;7.93;2.75;;;4.90;99.90;;;;;;4870244;29;20166;-86
2021/03/27 01:26:00;;;;;;;8.60;1.98;;;4.90;99.90;;;;;;4853774;29;20044;-86
2021/03/27 01:28:39;;;;;;;8.10;2.75;;;4.80;99.90;;;;;;4889373;29;20048;-89
2021/03/27 01:31:18;;;;;;;6.80;2.95;;;4.90;99.90;;;;;;4877514;29;20056;-87
2021/03/27 01:34:07;;;;;;;6.28;2.50;;;4.90;99.90;;;;;;4892049;29;20064;-86
2021/03/27 01:36:47;;;;;;;11.10;2.85;;;4.80;99.90;;;;;;4873524;29;20048;-86
2021/03/27 01:39:28;;;;;;;8.88;2.97;;;5.00;99.90;;;;;;4890351;29;20052;-86
2021/03/27 01:41:58;;;;;;;2.83;2.27;;;4.80;99.90;;;;;;4891866;29;20428;-86
2021/03/27 01:45:02;;;;;;;3.88;1.98;;;4.70;99.90;;;;;;4875884;29;20067;-86
2021/03/27 01:47:53;;;;;;;3.92;1.98;;;4.70;99.90;;;;;;4885391;29;20067;-86
2021/03/27 01:50:30;;;;;;;7.63;3.33;;;;;;;;;;4880892;29;20067;-86
2021/03/27 01:53:16;;;;;;;5.85;1.98;;;4.70;99.90;;;;;;4878731;29;20424;-87
2021/03/27 01:56:13;;;;;;;10.45;2.40;;;4.70;99.90;;;;;;4868566;29;20174;-87
2021/03/27 01:58:59;;;;;;;7.05;2.22;;;4.70;99.90;;;;;;4858819;29;20045;-86
2021/03/27 02:01:46;;;;;;;7.80;2.22;;;4.70;99.90;;;;;;4884288;29;20060;-85
2021/03/27 02:04:23;;;;;;;9.02;4.13;;;4.70;99.90;;;;;;4878137;29;20060;-87
2021/03/27 02:07:21;;;;;;;6.28;3.63;;;4.80;99.90;;;;;;4853220;29;20449;-85
2021/03/27 02:10:08;;;;;;;7.75;2.47;;;4.80;99.90;;;;;;4872960;29;20056;-85
2021/03/27 02:13:03;;;;;;;11.95;2.47;;;4.60;99.90;;;;;;4889230;29;20743;-87
2021/03/27 02:15:56;;;;;;;5.88;2.42;;;4.70;99.90;;;;;;4859341;29;20052;-85
2021/03/27 02:18:42;;;;;;;9.93;2.45;;;4.70;99.90;;;;;;4883807;29;20543;-85
2021/03/27 02:21:35;;;;;;;14.02;3.28;;;4.80;99.90;;;;;;4884948;29;20059;-85
2021/03/27 02:24:23;;;;;;;9.02;2.35;;;4.70;99.90;;;;;;4884407;29;20552;-85
2021/03/27 02:26:56;;;;;;;2.10;1.90;;;4.70;99.90;;;;;;4890356;29;20067;-87
2021/03/27 02:29:27;;;;;;;13.50;3.92;;;4.70;99.90;;;;;;4869158;29;20068;-86
2021/03/27 02:32:08;;;;;;;6.72;2.65;;;;;;;;;;4874406;29;20052;-86
2021/03/27 02:34:44;;;;;;;8.43;3.15;;;4.80;99.90;;;;;;4856938;29;20068;-85
2021/03/27 02:37:25;;;;;;;11.55;2.65;;;4.70;99.90;;;;;;4869968;29;20413;-85
2021/03/27 02:40:07;;;;;;;9.27;3.22;;;4.70;99.90;;;;;;4883843;29;20060;-85
2021/03/27 02:42:41;;;;;;;8.98;4.35;;;4.70;99.90;;;;;;4887458;29;20060;-85
2021/03/27 02:45:09;;;;;;;13.82;2.42;;;;;;;;;;4886680;29;20056;-86
2021/03/27 02:47:42;;;;;;;10.55;4.25;;;;;;;;;;4860347;29;20170;-85
2021/03/27 02:50:33;;;;;;;11.45;3.78;;;4.80;99.90;;;;;;4874473;29;20057;-86
2021/03/27 02:53:01;;;;;;;8.95;2.55;;;;;;;;;;4859597;29;20083;-85
2021/03/27 02:55:55;;;;;;;14.20;2.75;;;4.90;99.90;;;;;;4900493;29;20063;-85
2021/03/27 02:59:07;;;;;;;3.67;2.17;;;4.70;99.90;;;;;;4868942;29;20052;-85
2021/03/27 03:01:59;;;;;;;32.45;5.13;;;4.90;99.90;;;;;;4845008;29;20057;-85
2021/03/27 03:04:41;;;;;;;6.68;3.13;;;5.00;99.90;;;;;;4881904;29;20056;-85
2021/03/27 03:07:33;;;;;;;5.95;2.63;;;4.90;99.90;;;;;;4871384;29;20059;-86
2021/03/27 03:10:06;;;;;;;;;;;5.00;99.90;;;;;;4888606;29;20072;-84
2021/03/27 03:12:42;;;;;;;4.55;2.60;;;4.80;99.90;;;;;;4866251;29;19927;-84
2021/03/27 03:15:22;;;;;;;11.25;4.35;;;4.90;99.90;;;;;;4892464;29;20052;-85
2021/03/27 03:18:16;;;;;;;11.80;5.57;;;4.80;99.90;;;;;;4888329;29;20060;-84
2021/03/27 03:20:49;;;;;;;11.20;4.15;;;4.70;99.90;;;;;;4520347;29;10000073;-85
2021/03/27 03:23:21;;;;;;;3.60;2.00;;;4.60;99.90;;;;;;4856250;29;20541;-84
2021/03/27 03:26:13;;;;;;;9.30;5.60;;;4.60;99.90;;;;;;4878314;29;20100;-84
2021/03/27 03:29:24;;;;;;;7.13;3.63;;;4.70;99.90;;;;;;4883136;29;20052;-84
2021/03/27 03:31:51;;;;;;;10.88;4.68;;;;;;;;;;4844063;29;20053;-85
2021/03/27 03:34:39;;;;;;;5.97;4.40;;;4.50;99.90;;;;;;4876971;29;20057;-85
2021/03/27 03:37:18;;;;;;;8.00;4.13;;;4.60;99.90;;;;;;4865958;29;20049;-84
2021/03/27 03:40:14;;;;;;;14.27;4.20;;;4.50;99.90;;;;;;4875791;29;20053;-84
2021/03/27 03:43:00;;;;;;;5.55;2.03;;;4.50;99.90;;;;;;4877135;29;20515;-85
2021/03/27 03:45:28;;;;;;;4.70;2.33;;;;;;;;;;4875883;29;20049;-85
2021/03/27 03:48:05;;;;;;;6.65;2.30;;;4.40;99.90;;;;;;4884079;29;20064;-84
2021/03/27 03:51:08;;;;;;;4.90;1.83;;;4.40;99.90;;;;;;4865956;29;20056;-86
2021/03/27 03:53:48;;;;;;;6.07;3.13;;;4.40;99.90;;;;;;4863476;29;20044;-84
2021/03/27 03:56:32;;;;;;;6.47;2.33;;;4.50;99.90;;;;;;4848289;29;20052;-84
2021/03/27 03:59:24;;;;;;;7.35;2.42;;;4.20;99.90;;;;;;4875462;29;20050;-85
2021/03/27 04:02:21;;;;;;;2.15;1.70;;;4.50;99.90;;;;;;4854463;29;20057;-84
2021/03/27 04:04:57;;;;;;;2.30;1.80;;;4.30;99.90;;;;;;4882200;29;20057;-84
2021/03/27 04:07:42;;;;;;;4.57;1.92;;;4.50;99.90;;;;;;4857959;29;20057;-85
2021/03/27 04:10:18;;;;;;;6.68;1.90;;;4.40;99.90;;;;;;4851285;29;20061;-86
2021/03/27 04:12:55;;;;;;;9.10;3.03;;;4.50;99.90;;;;;;4846042;29;20053;-85
2021/03/27 04:15:42;;;;;;;1.77;1.65;;;4.40;99.90;;;;;;4855688;29;20057;-85
2021/03/27 04:18:18;;;;;;;5.53;1.80;;;4.40;99.90;;;;;;4855039;29;20065;-85
2021/03/27 04:20:58;;;;;;;5.68;2.58;;;4.40;99.90;;;;;;4871458;29;20046;-86
2021/03/27 04:23:32;;;;;;;6.45;1.70;;;4.30;99.90;;;;;;4870866;29;20715;-86
2021/03/27 04:26:17;;;;;;;3.33;1.95;;;4.40;99.90;;;;;;4871281;29;20419;-86
2021/03/27 04:29:03;;;;;;;10.00;2.53;;;4.40;99.90;;;;;;4840515;29;20060;-86
2021/03/27 04:32:05;;;;;;;11.40;3.95;;;4.30;99.90;;;;;;4871331;29;20062;-86
2021/03/27 04:34:39;;;;;;;4.10;2.33;;;4.30;99.90;;;;;;4858865;29;20434;-85
2021/03/27 04:37:06;;;;;;;3.00;2.80;;;;;;;;;;4863685;29;20057;-86
2021/03/27 04:39:43;;;;;;;13.32;3.97;;;3.90;99.90;;;;;;4861397;29;20065;-86
2021/03/27 04:42:42;;;;;;;6.32;2.13;;;4.30;99.90;;;;;;4856053;29;20060;-86
2021/03/27 04:45:24;;;;;;;8.00;2.38;;;4.20;99.90;;;;;;4858399;29;20057;-86
2021/03/27 04:48:10;;;;;;;;;;;4.20;99.90;;;;;;4858686;29;20066;-85
2021/03/27 04:51:26;;;;;;;6.13;2.10;;;4.20;99.90;;;;;;4885456;29;19924;-87
2021/03/27 04:54:14;;;;;;;3.55;3.25;;;4.30;99.90;;;;;;4873157;29;20084;-86
2021/03/27 04:57:02;;;;;;;8.32;1.95;;;4.20;99.90;;;;;;4860800;29;20056;-85
2021/03/27 04:59:51;;;;;;;5.82;3.67;;;6.70;99.90;;;;;;4870539;29;20060;-88
2021/03/27 05:02:42;;;;;;;5.20;2.22;;;4.30;99.90;;;;;;4883704;29;20057;-86
2021/03/27 05:05:43;;;;;;;5.88;2.00;;;4.30;99.90;;;;;;4862828;29;20051;-87
2021/03/27 05:08:44;;;;;;;6.93;2.45;;;4.20;99.90;;;;;;4875030;29;20041;-87
2021/03/27 05:11:11;;;;;;;;;;;4.20;99.90;;;;;;4870764;29;20749;-85
2021/03/27 05:13:51;;;;;;;6.40;2.13;;;4.20;99.90;;;;;;4879679;29;20035;-87
2021/03/27 05:16:30;;;;;;;14.50;3.33;;;4.10;99.90;;;;;;4883814;29;20056;-86
2021/03/27 05:19:17;;;;;;;5.25;2.08;;;4.10;99.90;;;;;;4867055;29;20053;-87
2021/03/27 05:21:59;;;;;;;5.10;3.80;;;4.10;99.90;;;;;;4862661;29;20056;-85
2021/03/27 05:25:19;;;;;;;12.25;2.33;;;4.80;99.90;;;;;;4876579;29;20057;-84
2021/03/27 05:28:03;;;;;;;7.60;2.75;;;;;;;;;;4886564;29;20493;-86
2021/03/27 05:30:44;;;;;;;14.50;6.00;;;4.00;99.90;;;;;;4859340;29;20065;-85
2021/03/27 05:33:34;;;;;;;4.88;3.33;;;5.10;99.90;;;;;;4887558;29;20044;-85
2021/03/27 05:36:02;;;;;;;8.32;3.55;;;;;;;;;;4876560;29;20052;-85
2021/03/27 05:38:59;;;;;;;20.27;3.55;;;4.00;99.90;;;;;;4874104;29;20068;-85
2021/03/27 05:42:06;;;;;;;8.43;2.67;;;3.90;99.90;;;;;;4857796;29;20056;-85
2021/03/27 05:44:33;;;;;;;2.33;2.20;;;;;;;;;;4875480;29;20052;-84
2021/03/27 05:47:01;;;;;;;8.68;3.75;;;;;;;;;;4873751;29;20060;-86
2021/03/27 05:49:45;;;;;;;3.88;2.30;;;4.00;99.90;;;;;;4874425;29;20063;-85
2021/03/27 05:52:23;;;;;;;6.72;3.15;;;4.00;99.90;;;;;;4871968;29;20167;-85
2021/03/27 05:55:18;;;;;;;11.57;2.58;;;3.80;99.90;;;;;;4876789;29;20053;-87
2021/03/27 05:57:49;;;;;;;10.55;2.65;;;4.00;99.90;;;;;;4873334;23;20064;-86
2021/03/27 06:00:28;;;;;;;12.40;2.28;;;4.00;99.90;;;;;;4878041;29;20064;-86
2021/03/27 06:03:40;;;;;;;5.43;2.95;;;4.00;99.90;;;;;;4885493;29;20053;-85
2021/03/27 06:06:48;;;;;;;21.45;3.03;;;3.90;99.90;;;;;;4871046;29;20049;-87
2021/03/27 06:09:34;;;;;;;12.67;4.40;;;4.10;99.90;;;;;;4901372;29;20045;-86
2021/03/27 06:12:42;;;;;;;14.95;3.88;;;4.00;99.90;;;;;;4872445;29;20317;-86
2021/03/27 06:15:28;;;;;;;3.75;3.28;;;4.10;99.90;;;;;;4870332;29;20508;-85
2021/03/27 06:18:13;;;;;;;11.10;3.83;;;4.00;99.90;;;;;;4877161;29;20057;-86
2021/03/27 06:21:22;;;;;;;18.08;2.85;;;4.30;99.90;;;;;;4875174;29;20072;-85
2021/03/27 06:23:53;;;;;;;4.03;2.05;;;;;;;;;;4885881;29;20063;-86
2021/03/27 06:26:35;;;;;;;5.85;2.13;;;4.20;99.90;;;;;;4855406;29;20056;-87
2021/03/27 06:29:12;;;;;;;5.85;2.42;;;4.30;99.90;;;;;;4870117;29;20053;-84
2021/03/27 06:31:58;;;;;;;11.38;2.60;;;4.40;99.90;;;;;;4871233;29;20069;-85
2021/03/27 06:34:50;;;;;;;4.20;3.55;;;4.40;99.90;;;;;;4884729;29;20052;-86
2021/03/27 06:37:55;;;;;;;5.70;2.97;;;4.40;99.90;;;;;;4862851;29;20501;-85
2021/03/27 06:40:54;;;;;;;4.40;2.20;;;4.40;99.90;;;;;;4890451;29;20053;-86
2021/03/27 06:43:47;;;;;;;9.85;3.60;;;4.50;99.90;;;;;;4862161;29;20057;-86
2021/03/27 06:46:15;;;;;;;4.30;3.90;;;;;;;;;;4887372;29;20060;-86
2021/03/27 06:49:16;;;;;;;6.60;2.72;;;4.80;99.90;;;;;;4855900;29;20057;-86
2021/03/27 06:51:43;;;;;;;10.25;2.53;;;;;;;;;;4871514;29;20045;-86
2021/03/27 06:54:41;;;;;;;4.50;2.58;;;4.60;99.90;;;;;;4877222;29;20064;-86
2021/03/27 06:57:30;;;;;;;5.40;3.15;;;4.60;99.90;;;;;;4897031;23;20049;-87
2021/03/27 07:00:34;;;;;;;15.35;2.40;;;4.70;99.90;;;;;;4889731;29;20061;-85
2021/03/27 07:03:27;;;;;;;14.80;2.50;;;4.70;99.90;;;;;;4890184;29;20076;-85
2021/03/27 07:06:24;;;;;;;13.07;4.47;;;4.80;99.90;;;;;;4878932;29;20079;-86
2021/03/27 07:09:48;;;;;;;7.03;2.88;;;4.80;99.90;;;;;;4890559;29;20048;-86
2021/03/27 07:12:24;;;;;;;13.13;3.22;;;5.00;99.90;;;;;;4861709;29;20238;-86
2021/03/27 07:15:16;;;;;;;5.75;2.53;;;5.00;99.90;;;;;;4877572;29;20056;-85
2021/03/27 07:18:21;;;;;;;7.65;3.15;;;5.00;99.90;;;;;;4896895;29;20053;-86
2021/03/27 07:21:06;;;;;;;10.05;2.72;;;5.20;99.90;;;;;;4893319;29;20053;-86
2021/03/27 07:23:55;;;;;;;10.57;3.30;;;5.20;99.90;;;;;;4889563;29;20449;-86
2021/03/27 07:26:47;;;;;;;8.73;3.92;;;5.20;99.90;;;;;;4865076;29;20060;-85
2021/03/27 07:29:40;;;;;;;17.23;3.05;;;5.30;99.90;;;;;;4875947;29;20420;-86
2021/03/27 07:32:08;;;;;;;16.42;2.97;;;;;;;;;;4888026;29;20068;-85
2021/03/27 07:35:11;;;;;;;4.30;3.45;;;5.50;99.90;;;;;;4875002;29;20049;-84
2021/03/27 07:37:59;;;;;;;14.02;4.38;;;5.50;99.90;;;;;;4874522;29;20083;-85
2021/03/27 07:40:34;;;;;;;6.45;3.05;;;5.50;99.90;;;;;;4871794;29;20067;-86
2021/03/27 07:43:32;;;;;;;10.57;3.13;;;5.60;99.90;;;;;;4890066;29;20059;-86
2021/03/27 07:46:05;;;;;;;8.50;3.10;;;5.90;99.90;;;;;;4882503;29;20090;-86
2021/03/27 07:49:16;;;;;;;23.40;4.68;;;5.80;99.90;;;;;;4888597;29;20577;-86
2021/03/27 07:51:45;;;;;;;13.43;3.17;;;;;;;;;;4861617;29;20058;-85
2021/03/27 07:55:06;;;;;;;12.80;4.10;;;5.80;99.90;;;;;;4873599;29;20056;-85
2021/03/27 07:58:12;;;;;;;17.60;5.22;;;6.20;99.90;;;;;;4858083;29;20061;-85
2021/03/27 08:00:50;;;;;;;5.88;2.97;;;;;;;;;;4894630;29;20049;-84
2021/03/27 08:03:18;;;;;;;13.65;4.97;;;;;;;;;;4904093;29;20053;-85
2021/03/27 08:05:48;;;;;;;9.25;2.70;;;;;;;;;;4903505;29;20060;-84
2021/03/27 08:08:28;;;;;;;11.70;3.40;;;6.10;99.90;;;;;;4916919;29;20044;-85
2021/03/27 08:11:45;;;;;;;14.60;2.90;;;6.20;99.90;;;;;;4878207;29;20056;-85
2021/03/27 08:14:13;;;;;;;14.68;3.60;;;;;;;;;;4850875;29;20064;-85
2021/03/27 08:17:26;;;;;;;11.10;4.72;;;5.90;99.90;;;;;;4834119;29;20057;-85
2021/03/27 08:19:54;;;;;;;9.93;3.85;;;;;;;;;;4879825;29;20091;-86
2021/03/27 08:22:29;;;;;;;7.88;3.83;;;6.40;99.90;;;;;;4890272;29;20056;-85
2021/03/27 08:25:05;;;;;;;12.63;2.45;;;6.40;99.90;;;;;;4890367;29;20482;-85
2021/03/27 08:27:54;;;;;;;24.58;4.45;;;6.40;99.90;;;;;;4874197;29;20052;-85
2021/03/27 08:30:49;;;;;;;11.40;2.60;;;6.60;99.90;;;;;;4882783;29;20060;-86
2021/03/27 08:33:36;;;;;;;13.95;2.90;;;;;;;;;;4897325;29;20056;-86
2021/03/27 08:36:29;;;;;;;12.38;4.20;;;6.70;99.90;;;;;;4875379;29;20060;-85
2021/03/27 08:39:05;;;;;;;;;;;6.70;99.90;;;;;;4882855;29;20052;-84
2021/03/27 08:42:10;;;;;;;15.15;3.28;;;6.80;99.90;;;;;;4891160;29;19928;-85
2021/03/27 08:45:05;;;;;;;7.30;2.67;;;6.90;99.90;;;;;;4892685;29;20078;-85
2021/03/27 08:47:46;;;;;;;9.05;3.95;;;7.10;99.90;;;;;;4890202;29;20075;-86
2021/03/27 08:50:34;;;;;;;10.95;3.25;;;7.10;99.90;;;;;;4884144;29;20052;-86
2021/03/27 08:53:38;;;;;;;5.10;2.83;;;7.10;99.90;;;;;;4874453;29;20084;-86
2021/03/27 08:56:33;;;;;;;12.27;3.67;;;7.20;99.90;;;;;;4906607;29;20064;-87
2021/03/27 08:59:36;;;;;;;15.90;3.85;;;7.10;99.90;;;;;;4883803;29;20068;-85
2021/03/27 09:02:38;;;;;;;12.93;5.30;;;7.30;99.90;;;;;;4887270;29;20063;-87
2021/03/27 09:05:06;;;;;;;14.32;4.40;;;;;;;;;;4871956;29;20059;-87
2021/03/27 09:07:57;;;;;;;8.77;4.20;;;7.40;99.90;;;;;;4889529;29;20049;-86
2021/03/27 09:10:30;;;;;;;20.98;3.53;;;;;;;;;;4893401;29;20060;-86
2021/03/27 09:13:12;;;;;;;11.02;3.33;;;7.70;99.90;;;;;;4879527;29;20056;-85
2021/03/27 09:16:01;;;;;;;16.08;3.92;;;7.80;99.90;;;;;;4863079;29;20053;-87
2021/03/27 09:18:53;;;;;;;19.52;3.63;;;7.80;99.90;;;;;;4859797;29;20193;-85
2021/03/27 09:21:40;;;;;;;13.52;2.53;;;7.50;99.90;;;;;;4895333;29;20632;-85
2021/03/27 09:24:33;;;;;;;14.15;3.50;;;7.70;99.90;;;;;;4912297;29;20080;-86
2021/03/27 09:27:13;;;;;;;4.32;2.67;;;7.70;99.90;;;;;;4897060;29;20063;-87
2021/03/27 09:29:41;;;;;;;29.42;4.80;;;;;;;;;;4889322;29;20060;-86
2021/03/27 09:32:08;;;;;;;8.65;2.70;;;;;;;;;;4892336;29;20056;-86
2021/03/27 09:35:07;;;;;;;19.10;5.38;;;7.90;99.90;;;;;;4890299;29;20063;-85
2021/03/27 09:38:02;;;;;;;17.05;3.80;;;6.70;99.90;;;;;;4878666;29;20056;-84
2021/03/27 09:41:07;;;;;;;13.63;3.65;;;8.10;99.90;;;;;;4901308;29;20068;-87
2021/03/27 09:43:35;;;;;;;3.83;3.13;;;;;;;;;;4886220;29;20053;-88
2021/03/27 09:46:14;;;;;;;15.48;3.42;;;8.20;99.90;;;;;;4886329;29;20064;-87
2021/03/27 09:48:56;;;;;;;4.53;2.20;;;8.20;99.90;;;;;;4885816;29;20061;-85
2021/03/27 09:51:52;;;;;;;15.25;5.38;;;8.30;99.90;;;;;;4898393;29;20056;-84
2021/03/27 09:54:59;;;;;;;16.80;5.63;;;8.40;99.90;;;;;;4898347;29;20060;-84
2021/03/27 09:57:39;;;;;;;19.85;5.15;;;8.30;99.90;;;;;;4888493;29;20048;-86
2021/03/27 10:00:14;;;;;;;7.82;2.72;;;8.60;99.90;;;;;;4883051;29;20350;-86
2021/03/27 10:03:08;;;;;;;9.90;3.45;;;8.70;99.90;;;;;;4890219;29;20104;-86
2021/03/27 10:05:52;;;;;;;7.35;3.15;;;8.70;99.90;;;;;;4872986;29;20064;-86
2021/03/27 10:08:20;;;;;;;17.23;3.72;;;;;;;;;;4882631;29;20052;-85
2021/03/27 10:11:03;;;;;;;7.43;3.55;;;8.90;99.90;;;;;;4882794;29;20063;-86
2021/03/27 10:13:47;;;;;;;18.45;2.78;;;8.90;99.90;;;;;;4886710;29;20053;-86
2021/03/27 10:16:29;;;;;;;13.15;3.10;;;9.00;99.90;;;;;;4868498;29;20064;-85
2021/03/27 10:19:17;;;;;;;8.43;2.50;;;9.00;99.90;;;;;;4902856;29;20057;-87
2021/03/27 10:21:45;;;;;;;14.15;3.78;;;;;;;;;;4901138;29;20067;-87
2021/03/27 10:24:12;;;;;;;11.45;3.47;;;;;;;;;;4906118;29;20065;-88
2021/03/27 10:26:46;;;;;;;5.03;2.15;;;9.40;99.90;;;;;;4905176;29;20063;-87
2021/03/27 10:29:40;;;;;;;8.55;2.95;;;9.40;99.90;;;;;;4886865;29;20056;-84
2021/03/27 10:32:29;;;;;;;9.07;2.83;;;9.40;99.90;;;;;;4888526;29;20057;-89
2021/03/27 10:35:02;;;;;;;26.40;6.43;;;9.40;99.90;;;;;;4904855;29;20060;-89
2021/03/27 10:37:30;;;;;;;4.95;2.80;;;;;;;;;;4882027;29;20049;-86
2021/03/27 10:40:24;;;;;;;15.45;2.45;;;9.50;99.90;;;;;;4901558;29;20079;-88
2021/03/27 10:43:16;;;;;;;18.65;2.72;;;9.50;99.90;;;;;;4895602;29;20064;-86
2021/03/27 10:45:44;;;;;;;16.08;3.70;;;;;;;;;;4887314;29;20045;-87
2021/03/27 10:48:34;;;;;;;13.27;3.75;;;9.60;99.90;;;;;;4890406;29;20060;-89
2021/03/27 10:51:10;;;;;;;11.25;3.53;;;9.50;99.90;;;;;;4897512;29;20059;-85
2021/03/27 10:53:50;;;;;;;13.38;4.63;;;9.50;99.90;;;;;;4895455;29;20605;-87
2021/03/27 10:56:44;;;;;;;16.30;3.70;;;9.60;99.90;;;;;;4881921;29;20053;-87
2021/03/27 10:59:20;;;;;;;13.95;4.78;;;9.70;99.90;;;;;;4890335;29;20049;-85
2021/03/27 11:01:53;;;;;;;5.32;2.38;;;9.60;99.90;;;;;;4895625;29;20052;-88
2021/03/27 11:04:30;;;;;;;12.00;4.03;;;;;;;;;;4896032;29;20049;-85
2021/03/27 11:07:25;;;;;;;6.75;2.80;;;9.90;99.90;;;;;;4880148;29;20053;-87
2021/03/27 11:10:34;;;;;;;10.80;4.00;;;10.00;99.30;;;;;;4896000;29;20044;-89
2021/03/27 11:13:37;;;;;;;13.07;3.05;;;10.10;99.20;;;;;;4827837;29;20073;-87
2021/03/27 11:16:14;;;;;;;9.38;2.13;;;10.20;98.80;;;;;;4843729;29;20054;-87
2021/03/27 11:19:09;;;;;;;14.85;2.78;;;10.10;99.50;;;;;;4890129;29;20053;-88
2021/03/27 11:22:01;;;;;;;10.93;2.50;;;10.00;99.10;;;;;;4890523;29;20063;-86
2021/03/27 11:25:04;;;;;;;13.50;4.90;;;10.30;99.60;;;;;;4886442;29;20048;-85
2021/03/27 11:28:28;;;;;;;6.18;2.13;;;10.40;96.70;;;;;;4900625;29;20420;-85
2021/03/27 11:30:56;;;;;;;13.55;3.78;;;;;;;;;;4821227;29;20058;-88
2021/03/27 11:33:31;;;;;;;15.30;3.15;;;;;;;;;;4803390;29;20628;-87
2021/03/27 11:36:06;;;;;;;7.90;2.53;;;10.80;97.60;;;;;;4865899;29;20662;-88
2021/03/27 11:38:37;;;;;;;12.27;3.15;;;10.60;94.50;;;;;;4894062;29;20068;-86
2021/03/27 11:41:04;;;;;;;5.15;2.63;;;;;;;;;;4871115;29;20544;-89
2021/03/27 11:44:02;;;;;;;8.40;3.03;;;10.60;92.20;;;;;;4889172;29;20052;-86
2021/03/27 11:47:22;;;;;;;10.90;3.03;;;10.40;89.80;;;;;;4888390;29;20079;-86
2021/03/27 11:50:15;;;;;;;13.50;4.47;;;10.30;90.40;;;;;;4880406;29;20063;-88
2021/03/27 11:53:11;;;;;;;9.80;2.55;;;10.10;90.90;;;;;;4892029;29;20049;-87
2021/03/27 11:56:01;;;;;;;10.15;2.90;;;10.30;93.80;;;;;;4878494;29;20068;-86
2021/03/27 12:01:39;;;;;;;15.00;2.95;;;10.70;95.00;;;;;;4897760;29;20056;-86
2021/03/27 12:04:43;;;;;;;8.88;2.75;;;10.90;93.20;;;;;;4913257;29;20048;-87
2021/03/27 12:07:19;;;;;;;12.88;3.15;;;11.40;99.90;;;;;;4893521;29;20056;-86
2021/03/27 12:09:57;;;;;;;11.13;3.38;;;11.20;90.10;;;;;;4874657;29;20462;-89
2021/03/27 12:12:49;;;;;;;5.93;2.43;;;11.30;90.20;;;;;;4895677;29;20049;-87
2021/03/27 12:16:02;;;;;;;18.92;3.92;;;11.40;90.60;;;;;;4892507;29;20303;-88
2021/03/27 12:18:45;;;;;;;6.72;3.05;;;11.30;85.00;;;;;;4892976;29;20072;-89
2021/03/27 12:21:21;;;;;;;9.02;2.15;;;11.50;89.30;;;;;;4887747;29;20048;-86
2021/03/27 12:24:08;;;;;;;14.30;3.30;;;11.50;86.80;;;;;;4891092;29;20061;-89
2021/03/27 12:26:45;;;;;;;10.57;2.40;;;11.50;88.10;;;;;;4894750;29;20068;-89
2021/03/27 12:29:24;;;;;;;11.70;2.95;;;11.50;87.20;;;;;;4877029;29;20059;-91
2021/03/27 12:32:05;;;;;;;10.25;3.13;;;;;;;;;;4876384;29;20056;-87
2021/03/27 12:34:49;;;;;;;11.10;3.40;;;11.40;84.40;;;;;;4888406;29;20079;-86
2021/03/27 12:37:40;;;;;;;13.15;4.03;;;12.20;86.30;;;;;;4872070;29;20539;-88
2021/03/27 12:40:30;;;;;;;8.10;3.03;;;11.60;88.40;;;;;;4904337;29;20060;-86
2021/03/27 12:43:18;;;;;;;8.60;3.20;;;11.80;80.30;;;;;;4883905;29;20320;-89
2021/03/27 12:45:50;;;;;;;6.55;2.90;;;11.90;81.40;;;;;;4894115;29;20052;-85
2021/03/27 12:48:29;;;;;;;7.93;2.38;;;12.00;82.20;;;;;;4880749;29;20076;-84
2021/03/27 12:51:25;;;;;;;12.48;2.38;;;11.90;82.20;;;;;;4893058;29;20037;-85
2021/03/27 12:54:10;;;;;;;10.05;2.67;;;;;;;;;;4892211;29;20400;-87
2021/03/27 12:57:09;;;;;;;6.10;3.03;;;;;;;;;;4897308;29;20412;-86
2021/03/27 12:59:36;;;;;;;20.52;3.35;;;;;;;;;;4886301;29;20056;-89
2021/03/27 13:02:36;;;;;;;12.02;2.95;;;12.30;82.30;;;;;;4903625;29;20428;-85
2021/03/27 13:05:07;;;;;;;20.75;3.83;;;;;;;;;;4908891;29;20052;-89
2021/03/27 13:07:35;;;;;;;12.80;3.47;;;;;;;;;;4886140;29;20055;-87
2021/03/27 13:10:02;;;;;;;11.45;3.05;;;;;;;;;;4899033;29;20059;-87
2021/03/27 13:12:30;;;;;;;6.97;2.72;;;;;;;;;;4895221;29;20048;-88
2021/03/27 13:15:48;;;;;;;11.82;2.42;;;12.00;75.80;;;;;;4874609;29;20883;-88
2021/03/27 13:18:26;;;;;;;16.98;3.60;;;11.90;81.30;;;;;;4852907;29;20053;-89
2021/03/27 13:21:17;;;;;;;9.77;3.67;;;12.00;77.40;;;;;;4871412;29;20065;-88
2021/03/27 13:23:44;;;;;;;14.98;4.50;;;;;;;;;;4876136;29;20108;-88
2021/03/27 13:26:26;;;;;;;11.50;2.78;;;12.30;78.40;;;;;;4877618;29;20067;-84
2021/03/27 13:29:34;;;;;;;11.00;2.92;;;12.40;78.00;;;;;;4891951;29;20056;-86
2021/03/27 13:32:15;;;;;;;9.93;2.60;;;12.30;78.10;;;;;;4874166;29;20049;-84
2021/03/27 13:35:07;;;;;;;14.45;3.42;;;12.30;83.00;;;;;;4883411;29;20053;-83
2021/03/27 13:37:43;;;;;;;;;;;12.10;82.20;;;;;;4884306;29;20040;-88
2021/03/27 13:40:21;;;;;;;27.35;4.57;;;12.30;80.70;;;;;;4897186;29;19924;-87
2021/03/27 13:42:55;;;;;;;13.48;4.20;;;;;;;;;;4876463;29;20049;-87
2021/03/27 13:45:39;;;;;;;9.23;3.17;;;12.30;81.60;;;;;;4865325;29;20056;-88
2021/03/27 13:48:29;;;;;;;15.13;3.67;;;12.30;83.60;;;;;;4892646;29;20059;-83
2021/03/27 13:51:21;;;;;;;18.38;3.38;;;12.30;80.40;;;;;;4895362;29;20858;-85
2021/03/27 13:54:05;;;;;;;11.80;4.40;;;12.00;83.10;;;;;;4893759;29;20060;-85
2021/03/27 13:56:58;;;;;;;11.05;4.72;;;12.10;79.50;;;;;;4880923;29;20044;-84
2021/03/27 13:59:48;;;;;;;13.50;4.00;;;12.00;79.30;;;;;;4893455;29;20061;-86
2021/03/27 14:02:42;;;;;;;11.38;2.75;;;11.80;93.90;;;;;;4888670;29;20068;-84
2021/03/27 14:05:25;;;;;;;18.13;7.35;;;11.90;80.90;;;;;;4884665;29;20064;-84
2021/03/27 14:08:08;;;;;;;14.40;3.88;;;11.80;81.60;;;;;;4887701;29;20756;-81
2021/03/27 14:10:40;;;;;;;12.02;3.50;;;11.80;86.70;;;;;;4885790;29;20061;-83
2021/03/27 14:13:37;;;;;;;18.70;3.85;;;11.80;84.00;;;;;;4886482;29;20052;-84
2021/03/27 14:16:27;;;;;;;13.38;4.53;;;11.80;85.50;;;;;;4908730;29;20053;-84
2021/03/27 14:19:17;;;;;;;18.77;3.70;;;11.90;87.80;;;;;;4895960;29;20060;-84
2021/03/27 14:22:01;;;;;;;10.98;3.05;;;11.90;88.80;;;;;;4898196;29;20052;-85
2021/03/27 14:25:23;;;;;;;14.43;3.50;;;11.90;90.20;;;;;;4912162;29;20501;-83
2021/03/27 14:28:06;;;;;;;11.13;3.40;;;12.00;90.70;;;;;;4888706;29;20061;-83
2021/03/27 14:30:54;;;;;;;10.52;2.83;;;12.10;91.10;;;;;;4895332;29;20048;-79
2021/03/27 14:34:02;;;;;;;11.18;3.47;;;12.00;91.50;;;;;;4896546;29;20053;-80
2021/03/27 14:36:40;;;;;;;8.40;2.63;;;11.90;93.40;;;;;;4895218;29;20435;-81
2021/03/27 14:39:34;;;;;;;10.00;2.53;;;12.20;91.90;;;;;;4884994;29;20523;-82
2021/03/27 14:42:36;;;;;;;14.88;3.83;;;12.10;92.80;;;;;;4900314;29;20104;-82
2021/03/27 14:45:03;;;;;;;9.40;2.78;;;;;;;;;;4884609;29;20068;-81
2021/03/27 14:47:31;;;;;;;7.03;2.42;;;;;;;;;;4896354;29;20056;-80
2021/03/27 14:50:16;;;;;;;11.43;2.53;;;12.70;92.10;;;;;;4893261;29;20415;-81